sensor_id;sensor_type;location;lat;lon;timestamp;P1;durP1;ratioP1;P2;durP2;ratioP2
23490;SDS011;14683;50.038;8.078;2024-03-07T02:53:02;45.33;;;26.67;;
23490;SDS011;14683;50.038;8.078;2024-03-07T02:56:04;46.10;;;27.77;;
23490;SDS011;14683;50.038;8.078;2024-03-07T02:59:10;42.95;;;27.55;;
23490;SDS011;14683;50.038;8.078;2024-03-07T03:02:11;46.00;;;28.02;;
23490;SDS011;14683;50.038;8.078;2024-03-07T03:05:12;42.85;;;26.73;;
23490;SDS011;14683;50.038;8.078;2024-03-07T03:08:14;45.63;;;26.95;;
23490;SDS011;14683;50.038;8.078;2024-03-07T03:11:15;45.08;;;28.50;;
23490;SDS011;14683;50.038;8.078;2024-03-07T03:14:17;43.65;;;26.55;;
23490;SDS011;14683;50.038;8.078;2024-03-07T03:17:18;38.55;;;25.40;;
23490;SDS011;14683;50.038;8.078;2024-03-07T03:20:19;43.65;;;27.30;;
23490;SDS011;14683;50.038;8.078;2024-03-07T03:23:26;41.92;;;27.50;;
23490;SDS011;14683;50.038;8.078;2024-03-07T03:26:28;40.75;;;26.65;;
23490;SDS011;14683;50.038;8.078;2024-03-07T03:29:29;40.22;;;25.88;;
23490;SDS011;14683;50.038;8.078;2024-03-07T03:32:31;43.42;;;27.08;;
23490;SDS011;14683;50.038;8.078;2024-03-07T03:35:33;41.83;;;26.80;;
23490;SDS011;14683;50.038;8.078;2024-03-07T03:38:34;42.00;;;26.83;;
23490;SDS011;14683;50.038;8.078;2024-03-07T03:41:35;43.58;;;27.65;;
23490;SDS011;14683;50.038;8.078;2024-03-07T03:44:36;37.88;;;25.85;;
23490;SDS011;14683;50.038;8.078;2024-03-07T03:47:38;36.85;;;24.77;;
23490;SDS011;14683;50.038;8.078;2024-03-07T03:50:39;37.22;;;25.40;;
23490;SDS011;14683;50.038;8.078;2024-03-07T03:53:40;38.05;;;24.52;;
23490;SDS011;14683;50.038;8.078;2024-03-07T03:56:41;39.05;;;24.40;;
23490;SDS011;14683;50.038;8.078;2024-03-07T03:59:42;44.25;;;24.55;;
23490;SDS011;14683;50.038;8.078;2024-03-07T04:02:45;40.42;;;25.13;;
23490;SDS011;14683;50.038;8.078;2024-03-07T04:05:50;38.13;;;25.05;;
23490;SDS011;14683;50.038;8.078;2024-03-07T04:08:51;39.20;;;25.48;;
23490;SDS011;14683;50.038;8.078;2024-03-07T04:11:52;41.53;;;25.08;;
23490;SDS011;14683;50.038;8.078;2024-03-07T04:14:54;38.05;;;25.17;;
23490;SDS011;14683;50.038;8.078;2024-03-07T04:17:57;38.42;;;24.75;;
23490;SDS011;14683;50.038;8.078;2024-03-07T04:20:59;37.95;;;24.75;;
23490;SDS011;14683;50.038;8.078;2024-03-07T04:24:00;35.90;;;23.63;;
23490;SDS011;14683;50.038;8.078;2024-03-07T04:27:02;37.42;;;23.95;;
23490;SDS011;14683;50.038;8.078;2024-03-07T04:30:07;36.53;;;23.98;;
23490;SDS011;14683;50.038;8.078;2024-03-07T04:33:10;36.10;;;24.15;;
23490;SDS011;14683;50.038;8.078;2024-03-07T04:36:11;37.70;;;23.23;;
23490;SDS011;14683;50.038;8.078;2024-03-07T04:39:12;37.33;;;23.77;;
23490;SDS011;14683;50.038;8.078;2024-03-07T04:42:33;34.90;;;23.30;;
23490;SDS011;14683;50.038;8.078;2024-03-07T04:45:34;37.42;;;24.13;;
23490;SDS011;14683;50.038;8.078;2024-03-07T04:48:35;34.38;;;23.17;;
23490;SDS011;14683;50.038;8.078;2024-03-07T04:51:36;36.15;;;23.60;;
23490;SDS011;14683;50.038;8.078;2024-03-07T04:54:37;35.00;;;23.13;;
23490;SDS011;14683;50.038;8.078;2024-03-07T04:57:38;36.63;;;23.08;;
23490;SDS011;14683;50.038;8.078;2024-03-07T05:00:41;35.08;;;23.02;;
23490;SDS011;14683;50.038;8.078;2024-03-07T05:03:42;36.53;;;21.88;;
23490;SDS011;14683;50.038;8.078;2024-03-07T05:06:44;32.33;;;21.52;;
23490;SDS011;14683;50.038;8.078;2024-03-07T05:09:48;34.30;;;21.58;;
23490;SDS011;14683;50.038;8.078;2024-03-07T05:12:49;34.55;;;20.85;;
23490;SDS011;14683;50.038;8.078;2024-03-07T05:15:51;30.65;;;20.70;;
23490;SDS011;14683;50.038;8.078;2024-03-07T05:18:52;29.42;;;19.98;;
23490;SDS011;14683;50.038;8.078;2024-03-07T05:21:53;33.63;;;21.08;;
23490;SDS011;14683;50.038;8.078;2024-03-07T05:24:54;28.95;;;19.40;;
23490;SDS011;14683;50.038;8.078;2024-03-07T05:27:57;30.75;;;19.55;;
23490;SDS011;14683;50.038;8.078;2024-03-07T05:31:00;29.98;;;20.02;;
23490;SDS011;14683;50.038;8.078;2024-03-07T05:34:01;27.00;;;18.65;;
23490;SDS011;14683;50.038;8.078;2024-03-07T05:37:04;27.60;;;19.42;;
23490;SDS011;14683;50.038;8.078;2024-03-07T05:40:05;26.95;;;18.20;;
23490;SDS011;14683;50.038;8.078;2024-03-07T05:43:08;25.13;;;17.70;;
23490;SDS011;14683;50.038;8.078;2024-03-07T05:46:09;25.10;;;17.27;;
23490;SDS011;14683;50.038;8.078;2024-03-07T05:49:12;28.20;;;18.50;;
23490;SDS011;14683;50.038;8.078;2024-03-07T05:52:13;27.42;;;18.45;;
23490;SDS011;14683;50.038;8.078;2024-03-07T05:55:15;28.10;;;18.20;;
23490;SDS011;14683;50.038;8.078;2024-03-07T05:58:18;23.83;;;17.38;;
23490;SDS011;14683;50.038;8.078;2024-03-07T06:01:23;28.60;;;18.60;;
23490;SDS011;14683;50.038;8.078;2024-03-07T06:04:26;27.98;;;18.55;;
23490;SDS011;14683;50.038;8.078;2024-03-07T06:07:27;27.30;;;18.40;;
23490;SDS011;14683;50.038;8.078;2024-03-07T06:10:28;27.80;;;18.42;;
23490;SDS011;14683;50.038;8.078;2024-03-07T06:13:29;28.55;;;17.27;;
23490;SDS011;14683;50.038;8.078;2024-03-07T06:16:31;23.38;;;17.00;;
23490;SDS011;14683;50.038;8.078;2024-03-07T06:19:41;28.30;;;18.08;;
23490;SDS011;14683;50.038;8.078;2024-03-07T06:22:42;25.88;;;17.48;;
23490;SDS011;14683;50.038;8.078;2024-03-07T06:25:44;24.92;;;17.02;;
23490;SDS011;14683;50.038;8.078;2024-03-07T06:28:51;25.20;;;16.85;;
23490;SDS011;14683;50.038;8.078;2024-03-07T06:31:52;25.23;;;17.52;;
23490;SDS011;14683;50.038;8.078;2024-03-07T06:34:55;26.23;;;17.60;;
23490;SDS011;14683;50.038;8.078;2024-03-07T06:37:56;27.10;;;17.30;;
23490;SDS011;14683;50.038;8.078;2024-03-07T06:40:57;24.73;;;17.52;;
23490;SDS011;14683;50.038;8.078;2024-03-07T06:43:58;35.78;;;21.25;;
23490;SDS011;14683;50.038;8.078;2024-03-07T06:46:59;41.90;;;23.75;;
23490;SDS011;14683;50.038;8.078;2024-03-07T06:50:01;42.72;;;24.58;;
23490;SDS011;14683;50.038;8.078;2024-03-07T06:53:05;40.28;;;23.05;;
23490;SDS011;14683;50.038;8.078;2024-03-07T06:56:10;28.92;;;20.13;;
23490;SDS011;14683;50.038;8.078;2024-03-07T06:59:11;35.22;;;21.42;;
23490;SDS011;14683;50.038;8.078;2024-03-07T07:02:14;32.90;;;21.33;;
23490;SDS011;14683;50.038;8.078;2024-03-07T07:05:15;33.53;;;19.58;;
23490;SDS011;14683;50.038;8.078;2024-03-07T07:08:16;30.33;;;19.60;;
23490;SDS011;14683;50.038;8.078;2024-03-07T07:11:17;30.17;;;19.17;;
23490;SDS011;14683;50.038;8.078;2024-03-07T07:14:18;25.55;;;17.80;;
23490;SDS011;14683;50.038;8.078;2024-03-07T07:17:21;28.90;;;18.55;;
23490;SDS011;14683;50.038;8.078;2024-03-07T07:20:24;29.20;;;20.25;;
23490;SDS011;14683;50.038;8.078;2024-03-07T07:23:26;29.95;;;19.58;;
23490;SDS011;14683;50.038;8.078;2024-03-07T07:26:27;34.42;;;19.98;;
23490;SDS011;14683;50.038;8.078;2024-03-07T07:29:28;30.65;;;19.65;;
23490;SDS011;14683;50.038;8.078;2024-03-07T07:32:31;29.15;;;18.13;;
23490;SDS011;14683;50.038;8.078;2024-03-07T07:35:33;27.40;;;18.25;;
23490;SDS011;14683;50.038;8.078;2024-03-07T07:38:35;30.50;;;20.45;;
23490;SDS011;14683;50.038;8.078;2024-03-07T07:41:36;27.85;;;18.58;;
23490;SDS011;14683;50.038;8.078;2024-03-07T07:44:37;29.67;;;19.40;;
23490;SDS011;14683;50.038;8.078;2024-03-07T07:47:39;27.83;;;19.70;;
23490;SDS011;14683;50.038;8.078;2024-03-07T07:50:43;35.53;;;21.20;;
23490;SDS011;14683;50.038;8.078;2024-03-07T07:53:45;35.47;;;21.30;;
23490;SDS011;14683;50.038;8.078;2024-03-07T07:56:46;30.77;;;20.05;;
23490;SDS011;14683;50.038;8.078;2024-03-07T07:59:48;29.20;;;19.02;;
23490;SDS011;14683;50.038;8.078;2024-03-07T08:03:00;29.88;;;19.23;;
23490;SDS011;14683;50.038;8.078;2024-03-07T08:06:02;28.52;;;18.58;;
23490;SDS011;14683;50.038;8.078;2024-03-07T08:09:03;28.45;;;19.02;;
23490;SDS011;14683;50.038;8.078;2024-03-07T08:12:10;26.33;;;18.70;;
23490;SDS011;14683;50.038;8.078;2024-03-07T08:15:13;28.83;;;18.95;;
23490;SDS011;14683;50.038;8.078;2024-03-07T08:18:14;25.48;;;17.10;;
23490;SDS011;14683;50.038;8.078;2024-03-07T08:21:16;25.20;;;17.92;;
23490;SDS011;14683;50.038;8.078;2024-03-07T08:24:17;29.13;;;18.52;;
23490;SDS011;14683;50.038;8.078;2024-03-07T08:27:18;27.38;;;18.10;;
23490;SDS011;14683;50.038;8.078;2024-03-07T08:30:19;26.77;;;18.25;;
23490;SDS011;14683;50.038;8.078;2024-03-07T08:33:21;27.08;;;17.45;;
23490;SDS011;14683;50.038;8.078;2024-03-07T08:36:22;26.90;;;17.45;;
23490;SDS011;14683;50.038;8.078;2024-03-07T08:39:23;29.30;;;17.88;;
23490;SDS011;14683;50.038;8.078;2024-03-07T08:42:24;27.27;;;16.75;;
23490;SDS011;14683;50.038;8.078;2024-03-07T08:45:26;28.02;;;17.88;;
23490;SDS011;14683;50.038;8.078;2024-03-07T08:48:27;27.88;;;17.80;;
23490;SDS011;14683;50.038;8.078;2024-03-07T08:51:28;23.65;;;17.42;;
23490;SDS011;14683;50.038;8.078;2024-03-07T08:54:30;25.10;;;17.50;;
23490;SDS011;14683;50.038;8.078;2024-03-07T08:57:31;24.33;;;18.10;;
23490;SDS011;14683;50.038;8.078;2024-03-07T09:00:33;26.75;;;16.52;;
23490;SDS011;14683;50.038;8.078;2024-03-07T09:03:35;24.00;;;17.52;;
23490;SDS011;14683;50.038;8.078;2024-03-07T09:06:36;24.33;;;17.38;;
23490;SDS011;14683;50.038;8.078;2024-03-07T09:09:38;22.13;;;15.75;;
23490;SDS011;14683;50.038;8.078;2024-03-07T09:12:39;29.50;;;17.88;;
23490;SDS011;14683;50.038;8.078;2024-03-07T09:15:40;24.05;;;16.67;;
23490;SDS011;14683;50.038;8.078;2024-03-07T09:18:41;29.98;;;17.85;;
23490;SDS011;14683;50.038;8.078;2024-03-07T09:21:43;26.50;;;17.52;;
23490;SDS011;14683;50.038;8.078;2024-03-07T09:24:44;26.48;;;16.33;;
23490;SDS011;14683;50.038;8.078;2024-03-07T09:27:45;25.30;;;16.98;;
23490;SDS011;14683;50.038;8.078;2024-03-07T09:30:46;31.95;;;20.13;;
23490;SDS011;14683;50.038;8.078;2024-03-07T09:33:47;24.17;;;17.00;;
23490;SDS011;14683;50.038;8.078;2024-03-07T09:36:50;23.58;;;15.38;;
23490;SDS011;14683;50.038;8.078;2024-03-07T09:39:52;19.77;;;14.90;;
23490;SDS011;14683;50.038;8.078;2024-03-07T09:42:53;21.98;;;16.20;;
23490;SDS011;14683;50.038;8.078;2024-03-07T09:45:56;22.88;;;16.20;;
23490;SDS011;14683;50.038;8.078;2024-03-07T09:48:58;22.42;;;16.35;;
23490;SDS011;14683;50.038;8.078;2024-03-07T09:51:59;27.38;;;17.20;;
23490;SDS011;14683;50.038;8.078;2024-03-07T09:55:01;22.52;;;16.30;;
23490;SDS011;14683;50.038;8.078;2024-03-07T09:58:03;26.77;;;16.20;;
23490;SDS011;14683;50.038;8.078;2024-03-07T10:01:07;27.10;;;18.58;;
23490;SDS011;14683;50.038;8.078;2024-03-07T10:04:12;26.05;;;17.77;;
23490;SDS011;14683;50.038;8.078;2024-03-07T10:07:15;27.10;;;16.58;;
23490;SDS011;14683;50.038;8.078;2024-03-07T10:10:17;25.00;;;17.20;;
23490;SDS011;14683;50.038;8.078;2024-03-07T10:13:18;25.80;;;17.15;;
23490;SDS011;14683;50.038;8.078;2024-03-07T10:16:20;27.23;;;18.02;;
23490;SDS011;14683;50.038;8.078;2024-03-07T10:19:21;24.95;;;16.92;;
23490;SDS011;14683;50.038;8.078;2024-03-07T10:22:22;29.40;;;19.85;;
23490;SDS011;14683;50.038;8.078;2024-03-07T10:25:23;26.00;;;17.83;;
23490;SDS011;14683;50.038;8.078;2024-03-07T10:28:28;27.75;;;17.55;;
23490;SDS011;14683;50.038;8.078;2024-03-07T10:31:29;26.80;;;17.85;;
23490;SDS011;14683;50.038;8.078;2024-03-07T10:34:33;28.17;;;18.88;;
23490;SDS011;14683;50.038;8.078;2024-03-07T10:37:35;28.27;;;19.73;;
23490;SDS011;14683;50.038;8.078;2024-03-07T10:40:36;27.60;;;18.85;;
23490;SDS011;14683;50.038;8.078;2024-03-07T10:43:41;28.80;;;19.33;;
23490;SDS011;14683;50.038;8.078;2024-03-07T10:46:44;28.70;;;19.02;;
23490;SDS011;14683;50.038;8.078;2024-03-07T10:50:04;29.88;;;20.15;;
23490;SDS011;14683;50.038;8.078;2024-03-07T11:03:25;28.40;;;18.42;;
23490;SDS011;14683;50.038;8.078;2024-03-07T11:06:27;28.02;;;18.60;;
23490;SDS011;14683;50.038;8.078;2024-03-07T11:09:28;25.40;;;17.58;;
23490;SDS011;14683;50.038;8.078;2024-03-07T11:12:29;27.52;;;16.98;;
23490;SDS011;14683;50.038;8.078;2024-03-07T11:15:31;25.83;;;18.55;;
23490;SDS011;14683;50.038;8.078;2024-03-07T11:18:34;27.10;;;18.30;;
23490;SDS011;14683;50.038;8.078;2024-03-07T11:21:41;27.45;;;18.67;;
23490;SDS011;14683;50.038;8.078;2024-03-07T11:24:43;26.02;;;17.67;;
23490;SDS011;14683;50.038;8.078;2024-03-07T11:28:18;26.85;;;17.70;;
23490;SDS011;14683;50.038;8.078;2024-03-07T11:31:14;28.38;;;17.70;;
23490;SDS011;14683;50.038;8.078;2024-03-07T11:34:16;25.02;;;17.02;;
23490;SDS011;14683;50.038;8.078;2024-03-07T11:37:37;27.63;;;17.38;;
23490;SDS011;14683;50.038;8.078;2024-03-07T11:40:50;25.57;;;17.83;;
23490;SDS011;14683;50.038;8.078;2024-03-07T11:43:52;25.80;;;17.35;;
23490;SDS011;14683;50.038;8.078;2024-03-07T11:46:55;24.77;;;17.38;;
23490;SDS011;14683;50.038;8.078;2024-03-07T11:49:57;27.95;;;18.02;;
23490;SDS011;14683;50.038;8.078;2024-03-07T11:53:01;28.85;;;18.42;;
23490;SDS011;14683;50.038;8.078;2024-03-07T11:56:03;27.40;;;17.67;;
23490;SDS011;14683;50.038;8.078;2024-03-07T11:59:10;26.55;;;17.95;;
23490;SDS011;14683;50.038;8.078;2024-03-07T12:02:14;27.77;;;16.70;;
23490;SDS011;14683;50.038;8.078;2024-03-07T12:05:16;27.17;;;17.80;;
23490;SDS011;14683;50.038;8.078;2024-03-07T12:08:17;26.02;;;18.00;;
23490;SDS011;14683;50.038;8.078;2024-03-07T12:11:19;26.95;;;17.50;;
23490;SDS011;14683;50.038;8.078;2024-03-07T12:14:21;25.67;;;17.60;;
23490;SDS011;14683;50.038;8.078;2024-03-07T12:17:23;22.80;;;16.55;;
23490;SDS011;14683;50.038;8.078;2024-03-07T12:20:25;27.20;;;16.88;;
23490;SDS011;14683;50.038;8.078;2024-03-07T12:23:28;27.65;;;17.30;;
23490;SDS011;14683;50.038;8.078;2024-03-07T12:26:31;26.60;;;17.58;;
23490;SDS011;14683;50.038;8.078;2024-03-07T12:29:32;26.10;;;17.95;;
23490;SDS011;14683;50.038;8.078;2024-03-07T12:32:34;24.92;;;17.02;;
23490;SDS011;14683;50.038;8.078;2024-03-07T12:35:36;27.10;;;16.85;;
23490;SDS011;14683;50.038;8.078;2024-03-07T12:38:37;24.00;;;16.63;;
23490;SDS011;14683;50.038;8.078;2024-03-07T12:41:41;22.95;;;16.42;;
23490;SDS011;14683;50.038;8.078;2024-03-07T12:44:43;24.40;;;16.90;;
23490;SDS011;14683;50.038;8.078;2024-03-07T12:47:47;22.52;;;15.75;;
23490;SDS011;14683;50.038;8.078;2024-03-07T12:50:52;25.45;;;16.40;;
23490;SDS011;14683;50.038;8.078;2024-03-07T12:53:56;24.75;;;15.88;;
23490;SDS011;14683;50.038;8.078;2024-03-07T12:56:57;21.85;;;15.32;;
23490;SDS011;14683;50.038;8.078;2024-03-07T12:59:58;23.63;;;15.43;;
23490;SDS011;14683;50.038;8.078;2024-03-07T13:02:59;19.58;;;14.75;;
23490;SDS011;14683;50.038;8.078;2024-03-07T13:06:01;24.35;;;15.95;;
23490;SDS011;14683;50.038;8.078;2024-03-07T13:09:02;28.63;;;15.07;;
23490;SDS011;14683;50.038;8.078;2024-03-07T13:12:11;27.83;;;18.35;;
23490;SDS011;14683;50.038;8.078;2024-03-07T13:15:18;23.67;;;15.68;;
23490;SDS011;14683;50.038;8.078;2024-03-07T13:18:22;26.17;;;14.98;;
23490;SDS011;14683;50.038;8.078;2024-03-07T13:21:23;22.98;;;15.98;;
23490;SDS011;14683;50.038;8.078;2024-03-07T13:24:25;28.52;;;16.25;;
23490;SDS011;14683;50.038;8.078;2024-03-07T13:27:27;23.00;;;14.90;;
23490;SDS011;14683;50.038;8.078;2024-03-07T13:30:29;20.88;;;14.55;;
23490;SDS011;14683;50.038;8.078;2024-03-07T13:33:30;23.00;;;16.05;;
23490;SDS011;14683;50.038;8.078;2024-03-07T13:36:31;21.48;;;14.07;;
23490;SDS011;14683;50.038;8.078;2024-03-07T13:39:32;20.92;;;14.45;;
23490;SDS011;14683;50.038;8.078;2024-03-07T13:42:34;21.20;;;13.43;;
23490;SDS011;14683;50.038;8.078;2024-03-07T13:45:35;17.83;;;13.05;;
23490;SDS011;14683;50.038;8.078;2024-03-07T13:48:40;18.33;;;12.35;;
23490;SDS011;14683;50.038;8.078;2024-03-07T13:51:43;20.17;;;13.50;;
23490;SDS011;14683;50.038;8.078;2024-03-07T13:55:04;18.77;;;12.93;;
23490;SDS011;14683;50.038;8.078;2024-03-07T13:58:11;16.23;;;12.23;;
23490;SDS011;14683;50.038;8.078;2024-03-07T14:31:42;19.40;;;13.70;;
23490;SDS011;14683;50.038;8.078;2024-03-07T14:38:23;20.58;;;14.88;;
23490;SDS011;14683;50.038;8.078;2024-03-07T14:44:46;13.90;;;10.10;;
23490;SDS011;14683;50.038;8.078;2024-03-07T14:47:49;15.07;;;10.88;;
23490;SDS011;14683;50.038;8.078;2024-03-07T14:50:54;14.27;;;11.45;;
23490;SDS011;14683;50.038;8.078;2024-03-07T14:53:55;20.40;;;14.55;;
23490;SDS011;14683;50.038;8.078;2024-03-07T14:56:58;14.35;;;10.30;;
23490;SDS011;14683;50.038;8.078;2024-03-07T14:59:59;13.18;;;10.07;;
23490;SDS011;14683;50.038;8.078;2024-03-07T15:03:00;13.35;;;10.75;;
23490;SDS011;14683;50.038;8.078;2024-03-07T15:06:01;14.52;;;10.45;;
23490;SDS011;14683;50.038;8.078;2024-03-07T15:09:03;12.68;;;10.18;;
23490;SDS011;14683;50.038;8.078;2024-03-07T15:12:04;14.15;;;9.82;;
23490;SDS011;14683;50.038;8.078;2024-03-07T15:15:07;13.70;;;10.63;;
23490;SDS011;14683;50.038;8.078;2024-03-07T15:18:14;16.17;;;11.10;;
23490;SDS011;14683;50.038;8.078;2024-03-07T15:21:15;16.95;;;11.75;;
23490;SDS011;14683;50.038;8.078;2024-03-07T15:24:18;17.30;;;11.48;;
23490;SDS011;14683;50.038;8.078;2024-03-07T15:27:22;14.93;;;10.70;;
23490;SDS011;14683;50.038;8.078;2024-03-07T15:30:23;12.75;;;9.80;;
23490;SDS011;14683;50.038;8.078;2024-03-07T15:33:37;16.65;;;11.88;;
23490;SDS011;14683;50.038;8.078;2024-03-07T15:36:38;16.48;;;12.10;;
23490;SDS011;14683;50.038;8.078;2024-03-07T15:39:39;16.98;;;10.27;;
23490;SDS011;14683;50.038;8.078;2024-03-07T15:42:48;18.17;;;11.65;;
23490;SDS011;14683;50.038;8.078;2024-03-07T15:45:52;15.35;;;10.02;;
23490;SDS011;14683;50.038;8.078;2024-03-07T15:48:54;15.15;;;12.38;;
23490;SDS011;14683;50.038;8.078;2024-03-07T15:51:55;15.43;;;12.30;;
23490;SDS011;14683;50.038;8.078;2024-03-07T15:54:56;17.33;;;12.90;;
23490;SDS011;14683;50.038;8.078;2024-03-07T15:57:59;21.52;;;13.75;;
23490;SDS011;14683;50.038;8.078;2024-03-07T16:01:05;18.88;;;12.52;;
23490;SDS011;14683;50.038;8.078;2024-03-07T16:04:06;21.83;;;13.02;;
23490;SDS011;14683;50.038;8.078;2024-03-07T16:07:07;16.35;;;9.85;;
23490;SDS011;14683;50.038;8.078;2024-03-07T16:10:09;16.23;;;11.30;;
23490;SDS011;14683;50.038;8.078;2024-03-07T16:13:13;18.13;;;12.68;;
23490;SDS011;14683;50.038;8.078;2024-03-07T16:16:17;16.75;;;12.18;;
23490;SDS011;14683;50.038;8.078;2024-03-07T16:19:20;15.95;;;12.32;;
23490;SDS011;14683;50.038;8.078;2024-03-07T16:22:22;16.92;;;10.77;;
23490;SDS011;14683;50.038;8.078;2024-03-07T16:25:24;14.70;;;10.30;;
23490;SDS011;14683;50.038;8.078;2024-03-07T16:28:26;14.02;;;10.10;;
23490;SDS011;14683;50.038;8.078;2024-03-07T16:31:28;18.40;;;13.40;;
23490;SDS011;14683;50.038;8.078;2024-03-07T16:34:30;16.60;;;12.23;;
23490;SDS011;14683;50.038;8.078;2024-03-07T16:37:32;18.00;;;13.23;;
23490;SDS011;14683;50.038;8.078;2024-03-07T16:40:36;24.58;;;17.70;;
23490;SDS011;14683;50.038;8.078;2024-03-07T16:43:39;16.33;;;11.48;;
23490;SDS011;14683;50.038;8.078;2024-03-07T16:46:40;18.67;;;13.95;;
23490;SDS011;14683;50.038;8.078;2024-03-07T16:49:41;15.55;;;11.98;;
23490;SDS011;14683;50.038;8.078;2024-03-07T16:52:43;19.67;;;14.20;;
23490;SDS011;14683;50.038;8.078;2024-03-07T16:55:53;17.92;;;12.80;;
23490;SDS011;14683;50.038;8.078;2024-03-07T16:58:54;15.30;;;10.25;;
23490;SDS011;14683;50.038;8.078;2024-03-07T17:01:56;16.50;;;12.00;;
23490;SDS011;14683;50.038;8.078;2024-03-07T17:04:57;14.07;;;10.30;;
23490;SDS011;14683;50.038;8.078;2024-03-07T17:07:59;14.13;;;10.15;;
23490;SDS011;14683;50.038;8.078;2024-03-07T17:11:04;21.67;;;13.38;;
23490;SDS011;14683;50.038;8.078;2024-03-07T17:14:07;16.77;;;11.60;;
23490;SDS011;14683;50.038;8.078;2024-03-07T17:17:10;13.63;;;10.27;;
23490;SDS011;14683;50.038;8.078;2024-03-07T17:20:16;15.30;;;9.80;;
23490;SDS011;14683;50.038;8.078;2024-03-07T17:23:26;14.15;;;9.57;;
23490;SDS011;14683;50.038;8.078;2024-03-07T17:26:28;13.98;;;10.13;;
23490;SDS011;14683;50.038;8.078;2024-03-07T17:29:30;13.75;;;10.15;;
23490;SDS011;14683;50.038;8.078;2024-03-07T17:32:33;14.38;;;10.00;;
23490;SDS011;14683;50.038;8.078;2024-03-07T17:35:35;14.75;;;10.40;;
23490;SDS011;14683;50.038;8.078;2024-03-07T17:38:40;15.63;;;11.25;;
23490;SDS011;14683;50.038;8.078;2024-03-07T17:41:42;17.38;;;11.80;;
23490;SDS011;14683;50.038;8.078;2024-03-07T17:44:43;18.77;;;11.85;;
23490;SDS011;14683;50.038;8.078;2024-03-07T17:47:44;17.05;;;10.73;;
23490;SDS011;14683;50.038;8.078;2024-03-07T17:50:50;14.80;;;10.88;;
23490;SDS011;14683;50.038;8.078;2024-03-07T17:53:51;15.50;;;11.10;;
23490;SDS011;14683;50.038;8.078;2024-03-07T17:56:52;15.35;;;11.52;;
23490;SDS011;14683;50.038;8.078;2024-03-07T17:59:54;14.60;;;10.40;;
23490;SDS011;14683;50.038;8.078;2024-03-07T18:03:04;15.90;;;10.93;;
23490;SDS011;14683;50.038;8.078;2024-03-07T18:06:06;14.93;;;11.00;;
23490;SDS011;14683;50.038;8.078;2024-03-07T18:09:09;17.10;;;11.25;;
23490;SDS011;14683;50.038;8.078;2024-03-07T18:15:29;16.17;;;11.38;;
23490;SDS011;14683;50.038;8.078;2024-03-07T18:18:30;19.27;;;12.30;;
23490;SDS011;14683;50.038;8.078;2024-03-07T18:21:33;20.15;;;12.07;;
23490;SDS011;14683;50.038;8.078;2024-03-07T18:24:35;18.00;;;11.95;;
23490;SDS011;14683;50.038;8.078;2024-03-07T18:27:36;20.98;;;13.52;;
23490;SDS011;14683;50.038;8.078;2024-03-07T18:30:37;19.50;;;12.68;;
23490;SDS011;14683;50.038;8.078;2024-03-07T18:33:39;18.15;;;11.65;;
23490;SDS011;14683;50.038;8.078;2024-03-07T18:36:43;18.35;;;13.23;;
23490;SDS011;14683;50.038;8.078;2024-03-07T18:39:45;18.38;;;11.93;;
23490;SDS011;14683;50.038;8.078;2024-03-07T18:42:47;18.17;;;11.43;;
23490;SDS011;14683;50.038;8.078;2024-03-07T18:45:48;17.75;;;13.05;;
23490;SDS011;14683;50.038;8.078;2024-03-07T18:48:52;16.95;;;13.05;;
23490;SDS011;14683;50.038;8.078;2024-03-07T18:51:54;17.00;;;11.43;;
23490;SDS011;14683;50.038;8.078;2024-03-07T18:54:55;16.00;;;11.85;;
23490;SDS011;14683;50.038;8.078;2024-03-07T18:58:06;15.60;;;11.45;;
23490;SDS011;14683;50.038;8.078;2024-03-07T19:01:10;16.83;;;10.88;;
23490;SDS011;14683;50.038;8.078;2024-03-07T19:04:11;19.13;;;12.02;;
23490;SDS011;14683;50.038;8.078;2024-03-07T19:07:12;17.13;;;10.98;;
23490;SDS011;14683;50.038;8.078;2024-03-07T19:10:14;15.57;;;10.63;;
23490;SDS011;14683;50.038;8.078;2024-03-07T19:13:18;17.73;;;10.88;;
23490;SDS011;14683;50.038;8.078;2024-03-07T19:16:23;20.08;;;13.45;;
23490;SDS011;14683;50.038;8.078;2024-03-07T19:19:24;17.83;;;11.95;;
23490;SDS011;14683;50.038;8.078;2024-03-07T19:22:25;14.35;;;10.52;;
23490;SDS011;14683;50.038;8.078;2024-03-07T19:25:26;19.85;;;12.70;;
23490;SDS011;14683;50.038;8.078;2024-03-07T19:28:28;17.58;;;12.85;;
23490;SDS011;14683;50.038;8.078;2024-03-07T19:31:29;16.15;;;11.88;;
23490;SDS011;14683;50.038;8.078;2024-03-07T19:34:34;16.95;;;11.30;;
23490;SDS011;14683;50.038;8.078;2024-03-07T19:37:36;14.45;;;10.68;;
23490;SDS011;14683;50.038;8.078;2024-03-07T19:40:37;14.93;;;10.50;;
23490;SDS011;14683;50.038;8.078;2024-03-07T19:43:38;17.17;;;11.60;;
23490;SDS011;14683;50.038;8.078;2024-03-07T19:46:39;14.77;;;10.55;;
23490;SDS011;14683;50.038;8.078;2024-03-07T19:49:42;16.48;;;10.98;;
23490;SDS011;14683;50.038;8.078;2024-03-07T19:52:43;17.20;;;10.57;;
23490;SDS011;14683;50.038;8.078;2024-03-07T19:55:48;17.08;;;10.50;;
23490;SDS011;14683;50.038;8.078;2024-03-07T19:58:50;14.88;;;10.23;;
23490;SDS011;14683;50.038;8.078;2024-03-07T20:01:51;15.30;;;9.52;;
23490;SDS011;14683;50.038;8.078;2024-03-07T20:04:52;14.73;;;10.40;;
23490;SDS011;14683;50.038;8.078;2024-03-07T20:07:53;14.20;;;10.00;;
23490;SDS011;14683;50.038;8.078;2024-03-07T20:10:58;14.13;;;10.77;;
23490;SDS011;14683;50.038;8.078;2024-03-07T20:13:59;15.02;;;9.27;;
23490;SDS011;14683;50.038;8.078;2024-03-07T20:17:00;12.95;;;10.10;;
23490;SDS011;14683;50.038;8.078;2024-03-07T20:20:01;21.38;;;15.90;;
23490;SDS011;14683;50.038;8.078;2024-03-07T20:23:14;18.38;;;13.13;;
23490;SDS011;14683;50.038;8.078;2024-03-07T20:26:16;19.75;;;12.88;;
23490;SDS011;14683;50.038;8.078;2024-03-07T20:29:17;19.00;;;13.98;;
23490;SDS011;14683;50.038;8.078;2024-03-07T20:32:18;19.00;;;13.10;;
23490;SDS011;14683;50.038;8.078;2024-03-07T20:35:20;23.73;;;17.55;;
23490;SDS011;14683;50.038;8.078;2024-03-07T20:38:21;24.50;;;18.92;;
23490;SDS011;14683;50.038;8.078;2024-03-07T20:41:24;25.35;;;19.83;;
23490;SDS011;14683;50.038;8.078;2024-03-07T20:44:25;21.77;;;16.02;;
23490;SDS011;14683;50.038;8.078;2024-03-07T20:47:26;22.45;;;16.17;;
